sensor_id;sensor_type;location;lat;lon;timestamp;pressure;altitude;pressure_sealevel;temperature;humidity
49451;BME280;35336;48.400;10.886;2023-01-31T00:00:04;96983.91;;;1.14;85.30
49451;BME280;35336;48.400;10.886;2023-01-31T00:00:20;96948.25;;;0.88;85.61
49451;BME280;35336;48.400;10.886;2023-01-31T00:00:35;96989.16;;;1.14;85.36
49451;BME280;35336;48.400;10.886;2023-01-31T00:00:50;96981.28;;;1.14;85.71
49451;BME280;35336;48.400;10.886;2023-01-31T00:01:28;96975.56;;;1.08;85.46
49451;BME280;35336;48.400;10.886;2023-01-31T00:01:43;96965.16;;;1.07;85.49
49451;BME280;35336;48.400;10.886;2023-01-31T00:01:59;96970.91;;;1.12;85.49
49451;BME280;35336;48.400;10.886;2023-01-31T00:02:14;96968.97;;;1.14;85.45
49451;BME280;35336;48.400;10.886;2023-01-31T00:02:29;96961.50;;;1.09;85.30
49451;BME280;35336;48.400;10.886;2023-01-31T00:02:45;96981.88;;;1.17;85.50
49451;BME280;35336;48.400;10.886;2023-01-31T00:03:00;96978.16;;;1.20;85.18
49451;BME280;35336;48.400;10.886;2023-01-31T00:03:16;96980.78;;;1.20;84.98
49451;BME280;35336;48.400;10.886;2023-01-31T00:03:31;96975.66;;;1.18;85.36
49451;BME280;35336;48.400;10.886;2023-01-31T00:03:47;96950.84;;;1.00;85.53
49451;BME280;35336;48.400;10.886;2023-01-31T00:04:05;96959.81;;;1.08;85.47
49451;BME280;35336;48.400;10.886;2023-01-31T00:04:21;96966.16;;;1.06;85.67
49451;BME280;35336;48.400;10.886;2023-01-31T00:04:36;96973.28;;;1.15;85.61
49451;BME280;35336;48.400;10.886;2023-01-31T00:04:51;96955.66;;;1.06;85.51
49451;BME280;35336;48.400;10.886;2023-01-31T00:05:07;96961.34;;;1.11;85.45
49451;BME280;35336;48.400;10.886;2023-01-31T00:05:22;96959.31;;;1.03;85.23
49451;BME280;35336;48.400;10.886;2023-01-31T00:05:38;96950.97;;;0.98;85.28
49451;BME280;35336;48.400;10.886;2023-01-31T00:05:53;96982.09;;;1.14;85.57
49451;BME280;35336;48.400;10.886;2023-01-31T00:06:34;96981.28;;;1.14;85.42
49451;BME280;35336;48.400;10.886;2023-01-31T00:06:49;96966.84;;;1.08;85.38
49451;BME280;35336;48.400;10.886;2023-01-31T00:07:05;96981.16;;;1.15;85.53
49451;BME280;35336;48.400;10.886;2023-01-31T00:07:20;96942.28;;;0.98;85.38
49451;BME280;35336;48.400;10.886;2023-01-31T00:07:35;96977.59;;;1.16;85.29
49451;BME280;35336;48.400;10.886;2023-01-31T00:07:51;96972.78;;;1.21;85.36
49451;BME280;35336;48.400;10.886;2023-01-31T00:08:06;96975.91;;;1.26;85.22
49451;BME280;35336;48.400;10.886;2023-01-31T00:08:21;96959.06;;;1.18;84.94
49451;BME280;35336;48.400;10.886;2023-01-31T00:08:37;96941.16;;;1.11;84.68
49451;BME280;35336;48.400;10.886;2023-01-31T00:08:53;96971.72;;;1.24;84.83
49451;BME280;35336;48.400;10.886;2023-01-31T00:09:10;96973.50;;;1.23;85.12
49451;BME280;35336;48.400;10.886;2023-01-31T00:09:26;96960.28;;;1.14;84.77
49451;BME280;35336;48.400;10.886;2023-01-31T00:09:41;96966.34;;;1.14;85.08
49451;BME280;35336;48.400;10.886;2023-01-31T00:09:57;96965.03;;;1.20;84.89
49451;BME280;35336;48.400;10.886;2023-01-31T00:10:12;96940.56;;;1.08;84.87
49451;BME280;35336;48.400;10.886;2023-01-31T00:10:28;96955.84;;;1.14;84.89
49451;BME280;35336;48.400;10.886;2023-01-31T00:10:43;96975.91;;;1.26;84.60
49451;BME280;35336;48.400;10.886;2023-01-31T00:10:58;96969.78;;;1.26;84.70
49451;BME280;35336;48.400;10.886;2023-01-31T00:11:15;96951.44;;;1.15;84.86
49451;BME280;35336;48.400;10.886;2023-01-31T00:11:31;96977.09;;;1.22;84.86
49451;BME280;35336;48.400;10.886;2023-01-31T00:11:46;96969.22;;;1.22;84.93
49451;BME280;35336;48.400;10.886;2023-01-31T00:12:02;96977.09;;;1.22;85.05
49451;BME280;35336;48.400;10.886;2023-01-31T00:12:17;96974.47;;;1.22;84.91
49451;BME280;35336;48.400;10.886;2023-01-31T00:12:32;96973.28;;;1.26;84.73
49451;BME280;35336;48.400;10.886;2023-01-31T00:12:48;96964.31;;;1.18;84.53
49451;BME280;35336;48.400;10.886;2023-01-31T00:13:03;96965.03;;;1.20;84.76
49451;BME280;35336;48.400;10.886;2023-01-31T00:13:18;96979.22;;;1.29;84.48
49451;BME280;35336;48.400;10.886;2023-01-31T00:13:34;96960.03;;;1.17;84.62
49451;BME280;35336;48.400;10.886;2023-01-31T00:13:50;96974.59;;;1.21;84.69
49451;BME280;35336;48.400;10.886;2023-01-31T00:14:07;96943.69;;;1.02;84.80
49451;BME280;35336;48.400;10.886;2023-01-31T00:14:22;96967.53;;;1.21;84.70
49451;BME280;35336;48.400;10.886;2023-01-31T00:14:38;96981.25;;;1.25;84.80
49451;BME280;35336;48.400;10.886;2023-01-31T00:14:53;96980.66;;;1.21;84.70
49451;BME280;35336;48.400;10.886;2023-01-31T00:15:08;96973.19;;;1.17;85.09
49451;BME280;35336;48.400;10.886;2023-01-31T00:15:24;96981.53;;;1.22;84.67
49451;BME280;35336;48.400;10.886;2023-01-31T00:15:39;96979.72;;;1.22;85.02
49451;BME280;35336;48.400;10.886;2023-01-31T00:15:55;96969.22;;;1.22;84.59
49451;BME280;35336;48.400;10.886;2023-01-31T00:16:12;96978.03;;;1.21;84.56
49451;BME280;35336;48.400;10.886;2023-01-31T00:16:28;96981.66;;;1.20;84.83
49451;BME280;35336;48.400;10.886;2023-01-31T00:16:43;96974.00;;;1.17;84.46
49451;BME280;35336;48.400;10.886;2023-01-31T00:16:58;96973.78;;;1.09;84.96
49451;BME280;35336;48.400;10.886;2023-01-31T00:17:14;96975.91;;;1.15;84.86
49451;BME280;35336;48.400;10.886;2023-01-31T00:17:29;96956.00;;;1.01;84.73
49451;BME280;35336;48.400;10.886;2023-01-31T00:17:44;96959.91;;;1.07;84.98
49451;BME280;35336;48.400;10.886;2023-01-31T00:18:00;96986.19;;;1.18;84.57
49451;BME280;35336;48.400;10.886;2023-01-31T00:18:15;96945.13;;;0.94;84.65
49451;BME280;35336;48.400;10.886;2023-01-31T00:18:30;96967.78;;;1.07;84.93
49451;BME280;35336;48.400;10.886;2023-01-31T00:18:46;96974.94;;;1.16;85.10
49451;BME280;35336;48.400;10.886;2023-01-31T00:19:02;96958.97;;;1.08;84.88
49451;BME280;35336;48.400;10.886;2023-01-31T00:19:18;96987.72;;;1.21;84.73
49451;BME280;35336;48.400;10.886;2023-01-31T00:19:33;96979.13;;;1.19;85.09
49451;BME280;35336;48.400;10.886;2023-01-31T00:19:48;96992.16;;;1.20;85.14
49451;BME280;35336;48.400;10.886;2023-01-31T00:20:04;96978.78;;;1.12;84.60
49451;BME280;35336;48.400;10.886;2023-01-31T00:20:20;96985.22;;;1.19;84.61
49451;BME280;35336;48.400;10.886;2023-01-31T00:20:35;96986.19;;;1.18;84.56
49451;BME280;35336;48.400;10.886;2023-01-31T00:20:50;96948.50;;;0.97;84.77
49451;BME280;35336;48.400;10.886;2023-01-31T00:21:14;96988.81;;;1.18;84.97
49451;BME280;35336;48.400;10.886;2023-01-31T00:21:30;96995.72;;;1.19;85.09
49451;BME280;35336;48.400;10.886;2023-01-31T00:21:46;96950.38;;;0.94;84.69
49451;BME280;35336;48.400;10.886;2023-01-31T00:22:01;96971.88;;;1.11;84.83
49451;BME280;35336;48.400;10.886;2023-01-31T00:22:16;96975.44;;;1.10;84.92
49451;BME280;35336;48.400;10.886;2023-01-31T00:22:32;96975.22;;;1.13;85.00
49451;BME280;35336;48.400;10.886;2023-01-31T00:22:47;96949.66;;;1.04;84.88
49451;BME280;35336;48.400;10.886;2023-01-31T00:23:02;96978.53;;;1.26;84.89
49451;BME280;35336;48.400;10.886;2023-01-31T00:23:18;96992.75;;;1.24;84.89
49451;BME280;35336;48.400;10.886;2023-01-31T00:23:33;96986.50;;;1.25;84.90
49451;BME280;35336;48.400;10.886;2023-01-31T00:23:50;96970.41;;;1.18;84.68
49451;BME280;35336;48.400;10.886;2023-01-31T00:24:05;96963.63;;;1.16;84.89
49451;BME280;35336;48.400;10.886;2023-01-31T00:24:21;96970.66;;;1.15;84.50
49451;BME280;35336;48.400;10.886;2023-01-31T00:24:36;96984.00;;;1.23;84.65
49451;BME280;35336;48.400;10.886;2023-01-31T00:24:51;96990.22;;;1.22;84.88
49451;BME280;35336;48.400;10.886;2023-01-31T00:25:07;96986.91;;;1.20;84.54
49451;BME280;35336;48.400;10.886;2023-01-31T00:25:23;96971.59;;;1.14;84.79
49451;BME280;35336;48.400;10.886;2023-01-31T00:25:38;96988.53;;;1.21;84.96
49451;BME280;35336;48.400;10.886;2023-01-31T00:25:54;96970.78;;;1.14;85.10
49451;BME280;35336;48.400;10.886;2023-01-31T00:26:28;96955.66;;;0.94;85.21
49451;BME280;35336;48.400;10.886;2023-01-31T00:26:44;96982.00;;;1.16;85.26
49451;BME280;35336;48.400;10.886;2023-01-31T00:26:59;96975.91;;;1.15;84.83
49451;BME280;35336;48.400;10.886;2023-01-31T00:27:14;96991.66;;;1.15;85.07
49451;BME280;35336;48.400;10.886;2023-01-31T00:27:30;96978.53;;;1.15;85.06
49451;BME280;35336;48.400;10.886;2023-01-31T00:27:45;96980.47;;;1.13;84.88
49451;BME280;35336;48.400;10.886;2023-01-31T00:28:00;96965.56;;;1.02;85.01
49451;BME280;35336;48.400;10.886;2023-01-31T00:28:16;96983.78;;;1.15;85.40
49451;BME280;35336;48.400;10.886;2023-01-31T00:28:31;96970.56;;;1.05;85.29
49451;BME280;35336;48.400;10.886;2023-01-31T00:28:48;96986.53;;;1.14;85.30
49451;BME280;35336;48.400;10.886;2023-01-31T00:29:04;96977.44;;;1.18;85.19
49451;BME280;35336;48.400;10.886;2023-01-31T00:29:20;96955.75;;;1.04;85.01
49451;BME280;35336;48.400;10.886;2023-01-31T00:29:35;96986.06;;;1.20;84.96
49451;BME280;35336;48.400;10.886;2023-01-31T00:29:50;96972.59;;;1.13;84.96
49451;BME280;35336;48.400;10.886;2023-01-31T00:30:06;96990.34;;;1.21;84.86
49451;BME280;35336;48.400;10.886;2023-01-31T00:30:22;96945.59;;;1.00;84.62
49451;BME280;35336;48.400;10.886;2023-01-31T00:30:37;96980.06;;;1.18;84.38
49451;BME280;35336;48.400;10.886;2023-01-31T00:30:52;96978.66;;;1.14;84.79
49451;BME280;35336;48.400;10.886;2023-01-31T00:31:09;96973.28;;;1.15;84.87
49451;BME280;35336;48.400;10.886;2023-01-31T00:31:26;96985.81;;;1.23;84.80
49451;BME280;35336;48.400;10.886;2023-01-31T00:31:42;96953.25;;;1.03;84.90
49451;BME280;35336;48.400;10.886;2023-01-31T00:31:57;96964.94;;;1.10;84.83
49451;BME280;35336;48.400;10.886;2023-01-31T00:32:12;96972.59;;;1.13;85.02
49451;BME280;35336;48.400;10.886;2023-01-31T00:32:27;96937.88;;;0.87;84.72
49451;BME280;35336;48.400;10.886;2023-01-31T00:32:43;96959.13;;;0.95;84.84
49451;BME280;35336;48.400;10.886;2023-01-31T00:32:58;96974.63;;;1.09;84.79
49451;BME280;35336;48.400;10.886;2023-01-31T00:33:13;96965.66;;;1.01;84.87
49451;BME280;35336;48.400;10.886;2023-01-31T00:33:29;96977.94;;;1.11;84.88
49451;BME280;35336;48.400;10.886;2023-01-31T00:33:45;96950.66;;;0.91;84.87
49451;BME280;35336;48.400;10.886;2023-01-31T00:34:01;96979.47;;;1.14;84.79
49451;BME280;35336;48.400;10.886;2023-01-31T00:34:17;96971.41;;;1.06;84.87
49451;BME280;35336;48.400;10.886;2023-01-31T00:34:32;96988.09;;;1.16;85.20
49451;BME280;35336;48.400;10.886;2023-01-31T00:34:48;96968.66;;;1.07;84.96
49451;BME280;35336;48.400;10.886;2023-01-31T00:35:03;96977.72;;;1.15;85.30
49451;BME280;35336;48.400;10.886;2023-01-31T00:35:19;96971.13;;;1.09;84.96
49451;BME280;35336;48.400;10.886;2023-01-31T00:35:37;96980.47;;;1.13;85.36
49451;BME280;35336;48.400;10.886;2023-01-31T00:35:52;96968.41;;;0.99;85.23
49451;BME280;35336;48.400;10.886;2023-01-31T00:36:14;96984.75;;;1.14;85.23
49451;BME280;35336;48.400;10.886;2023-01-31T00:36:31;96975.44;;;1.10;85.44
49451;BME280;35336;48.400;10.886;2023-01-31T00:36:47;96954.09;;;0.92;85.65
49451;BME280;35336;48.400;10.886;2023-01-31T00:37:02;96980.22;;;1.16;85.31
49451;BME280;35336;48.400;10.886;2023-01-31T00:37:18;96988.09;;;1.16;84.97
49451;BME280;35336;48.400;10.886;2023-01-31T00:37:33;96962.81;;;1.04;85.27
49451;BME280;35336;48.400;10.886;2023-01-31T00:37:49;96974.50;;;1.11;85.37
49451;BME280;35336;48.400;10.886;2023-01-31T00:38:04;96968.06;;;1.04;85.12
49451;BME280;35336;48.400;10.886;2023-01-31T00:38:19;96968.78;;;1.06;85.37
49451;BME280;35336;48.400;10.886;2023-01-31T00:38:35;96988.44;;;1.11;85.33
49451;BME280;35336;48.400;10.886;2023-01-31T00:38:52;96979.75;;;1.11;85.30
49451;BME280;35336;48.400;10.886;2023-01-31T00:39:08;96967.09;;;1.05;85.03
49451;BME280;35336;48.400;10.886;2023-01-31T00:39:24;96982.38;;;1.11;85.25
49451;BME280;35336;48.400;10.886;2023-01-31T00:39:39;96983.09;;;1.13;85.38
49451;BME280;35336;48.400;10.886;2023-01-31T00:39:54;96970.41;;;1.07;85.24
49451;BME280;35336;48.400;10.886;2023-01-31T00:40:10;96974.03;;;1.06;85.20
49451;BME280;35336;48.400;10.886;2023-01-31T00:40:25;96941.31;;;0.87;85.38
49451;BME280;35336;48.400;10.886;2023-01-31T00:40:41;96980.69;;;1.10;85.31
49451;BME280;35336;48.400;10.886;2023-01-31T00:40:56;96964.13;;;0.98;85.44
49451;BME280;35336;48.400;10.886;2023-01-31T00:41:11;96969.22;;;1.00;85.23
49451;BME280;35336;48.400;10.886;2023-01-31T00:41:28;96959.72;;;0.99;85.13
49451;BME280;35336;48.400;10.886;2023-01-31T00:41:44;96979.97;;;1.08;85.47
49451;BME280;35336;48.400;10.886;2023-01-31T00:41:59;96943.22;;;0.85;85.23
49451;BME280;35336;48.400;10.886;2023-01-31T00:42:14;96968.88;;;1.04;85.45
49451;BME280;35336;48.400;10.886;2023-01-31T00:42:29;96959.94;;;0.95;85.50
49451;BME280;35336;48.400;10.886;2023-01-31T00:42:45;96975.94;;;1.04;85.65
49451;BME280;35336;48.400;10.886;2023-01-31T00:43:00;96962.56;;;0.95;85.43
49451;BME280;35336;48.400;10.886;2023-01-31T00:43:15;96979.97;;;1.08;85.14
49451;BME280;35336;48.400;10.886;2023-01-31T00:43:31;96980.22;;;1.05;85.21
49451;BME280;35336;48.400;10.886;2023-01-31T00:43:47;96971.28;;;1.07;85.04
49451;BME280;35336;48.400;10.886;2023-01-31T00:44:03;96948.97;;;0.90;84.97
49451;BME280;35336;48.400;10.886;2023-01-31T00:44:18;96961.47;;;0.98;85.15
49451;BME280;35336;48.400;10.886;2023-01-31T00:44:34;96955.66;;;0.94;85.31
49451;BME280;35336;48.400;10.886;2023-01-31T00:44:49;96985.94;;;1.10;85.49
49451;BME280;35336;48.400;10.886;2023-01-31T00:45:05;96972.94;;;1.08;85.14
49451;BME280;35336;48.400;10.886;2023-01-31T00:45:21;96978.78;;;1.12;85.23
49451;BME280;35336;48.400;10.886;2023-01-31T00:45:36;96974.63;;;1.09;85.15
49451;BME280;35336;48.400;10.886;2023-01-31T00:45:52;96987.63;;;1.11;85.32
49451;BME280;35336;48.400;10.886;2023-01-31T00:46:07;96984.88;;;1.13;85.29
49451;BME280;35336;48.400;10.886;2023-01-31T00:46:23;96964.84;;;1.00;85.32
49451;BME280;35336;48.400;10.886;2023-01-31T00:46:38;96980.22;;;1.05;85.03
49451;BME280;35336;48.400;10.886;2023-01-31T00:46:53;96985.00;;;1.11;85.00
49451;BME280;35336;48.400;10.886;2023-01-31T00:47:09;96971.63;;;1.03;84.96
49451;BME280;35336;48.400;10.886;2023-01-31T00:47:24;96991.78;;;1.14;84.98
49451;BME280;35336;48.400;10.886;2023-01-31T00:47:39;96971.63;;;1.03;85.03
49451;BME280;35336;48.400;10.886;2023-01-31T00:47:55;96988.44;;;1.11;85.35
49451;BME280;35336;48.400;10.886;2023-01-31T00:48:10;96978.56;;;1.04;85.11
49451;BME280;35336;48.400;10.886;2023-01-31T00:48:26;96969.22;;;1.00;85.21
49451;BME280;35336;48.400;10.886;2023-01-31T00:48:41;96965.66;;;1.01;84.91
49451;BME280;35336;48.400;10.886;2023-01-31T00:48:57;96973.44;;;1.02;85.08
49451;BME280;35336;48.400;10.886;2023-01-31T00:49:13;96985.00;;;1.11;84.94
49451;BME280;35336;48.400;10.886;2023-01-31T00:49:28;96963.75;;;1.03;85.04
49451;BME280;35336;48.400;10.886;2023-01-31T00:49:43;96951.47;;;0.92;85.23
49451;BME280;35336;48.400;10.886;2023-01-31T00:49:59;96980.56;;;1.11;85.08
49451;BME280;35336;48.400;10.886;2023-01-31T00:50:15;96991.94;;;1.12;85.15
49451;BME280;35336;48.400;10.886;2023-01-31T00:50:30;96993.59;;;1.13;85.22
49451;BME280;35336;48.400;10.886;2023-01-31T00:50:45;96992.03;;;1.10;85.48
49451;BME280;35336;48.400;10.886;2023-01-31T00:51:01;96991.06;;;1.11;85.05
49451;BME280;35336;48.400;10.886;2023-01-31T00:51:17;96977.72;;;1.03;85.23
49451;BME280;35336;48.400;10.886;2023-01-31T00:51:33;96991.34;;;1.08;85.40
49451;BME280;35336;48.400;10.886;2023-01-31T00:51:48;96990.25;;;1.11;85.20
49451;BME280;35336;48.400;10.886;2023-01-31T00:52:03;96972.44;;;1.03;85.33
49451;BME280;35336;48.400;10.886;2023-01-31T00:52:19;96983.19;;;1.11;85.27
49451;BME280;35336;48.400;10.886;2023-01-31T00:52:34;96984.03;;;1.12;85.42
49451;BME280;35336;48.400;10.886;2023-01-31T00:52:49;96976.53;;;1.07;85.05
49451;BME280;35336;48.400;10.886;2023-01-31T00:53:05;96971.63;;;1.03;85.34
49451;BME280;35336;48.400;10.886;2023-01-31T00:53:20;96961.75;;;0.95;85.20
49451;BME280;35336;48.400;10.886;2023-01-31T00:53:36;96985.22;;;1.08;85.33
49451;BME280;35336;48.400;10.886;2023-01-31T00:53:51;96950.06;;;0.88;85.26
49451;BME280;35336;48.400;10.886;2023-01-31T00:54:07;96982.25;;;1.13;85.60
49451;BME280;35336;48.400;10.886;2023-01-31T00:54:22;96992.63;;;1.14;85.45
49451;BME280;35336;48.400;10.886;2023-01-31T00:54:37;96984.03;;;1.12;85.38
49451;BME280;35336;48.400;10.886;2023-01-31T00:54:53;96946.72;;;0.86;85.25
49451;BME280;35336;48.400;10.886;2023-01-31T00:55:08;96943.00;;;0.88;85.06
49451;BME280;35336;48.400;10.886;2023-01-31T00:55:23;96964.25;;;0.97;85.32
49451;BME280;35336;48.400;10.886;2023-01-31T00:55:39;96984.28;;;1.09;85.23
49451;BME280;35336;48.400;10.886;2023-01-31T00:56:01;96974.50;;;1.00;85.16
49451;BME280;35336;48.400;10.886;2023-01-31T00:56:20;96985.94;;;1.10;85.47
49451;BME280;35336;48.400;10.886;2023-01-31T00:56:36;96972.59;;;1.02;85.29
49451;BME280;35336;48.400;10.886;2023-01-31T00:56:51;96953.97;;;0.93;85.23
49451;BME280;35336;48.400;10.886;2023-01-31T00:57:06;96969.97;;;1.02;85.56
49451;BME280;35336;48.400;10.886;2023-01-31T00:57:22;96969.13;;;1.01;85.60
49451;BME280;35336;48.400;10.886;2023-01-31T00:57:37;96972.34;;;1.05;85.25
49451;BME280;35336;48.400;10.886;2023-01-31T00:57:52;96984.03;;;1.12;85.31
49451;BME280;35336;48.400;10.886;2023-01-31T00:58:08;96977.34;;;1.19;85.27
49451;BME280;35336;48.400;10.886;2023-01-31T00:58:23;96981.53;;;1.22;85.30
49451;BME280;35336;48.400;10.886;2023-01-31T00:58:39;96979.03;;;1.20;84.91
49451;BME280;35336;48.400;10.886;2023-01-31T00:58:54;96960.78;;;1.07;85.08
49451;BME280;35336;48.400;10.886;2023-01-31T00:59:10;96967.56;;;1.10;85.18
49451;BME280;35336;48.400;10.886;2023-01-31T00:59:25;96954.66;;;1.07;85.15
49451;BME280;35336;48.400;10.886;2023-01-31T00:59:41;96982.84;;;1.16;85.16
49451;BME280;35336;48.400;10.886;2023-01-31T00:59:56;96962.06;;;1.02;84.76
49451;BME280;35336;48.400;10.886;2023-01-31T01:00:12;96979.38;;;1.16;84.85
49451;BME280;35336;48.400;10.886;2023-01-31T01:00:28;96963.75;;;1.03;85.09
49451;BME280;35336;48.400;10.886;2023-01-31T01:00:44;96966.84;;;1.08;84.93
49451;BME280;35336;48.400;10.886;2023-01-31T01:01:17;96984.75;;;1.14;85.04
49451;BME280;35336;48.400;10.886;2023-01-31T01:01:33;96991.56;;;1.17;85.02
49451;BME280;35336;48.400;10.886;2023-01-31T01:01:49;96992.38;;;1.17;84.91
49451;BME280;35336;48.400;10.886;2023-01-31T01:02:05;96966.03;;;1.07;85.24
49451;BME280;35336;48.400;10.886;2023-01-31T01:02:20;96981.16;;;1.15;84.73
49451;BME280;35336;48.400;10.886;2023-01-31T01:02:35;96981.28;;;1.14;84.87
49451;BME280;35336;48.400;10.886;2023-01-31T01:02:51;96999.81;;;1.12;85.04
49451;BME280;35336;48.400;10.886;2023-01-31T01:03:06;96970.56;;;1.05;85.21
49451;BME280;35336;48.400;10.886;2023-01-31T01:03:21;96967.19;;;1.03;85.25
49451;BME280;35336;48.400;10.886;2023-01-31T01:03:38;96962.94;;;1.02;84.93
49451;BME280;35336;48.400;10.886;2023-01-31T01:03:55;96961.16;;;0.91;84.99
49451;BME280;35336;48.400;10.886;2023-01-31T01:04:10;96978.28;;;1.07;85.24
49451;BME280;35336;48.400;10.886;2023-01-31T01:04:26;96971.50;;;1.04;85.09
49451;BME280;35336;48.400;10.886;2023-01-31T01:04:41;96979.03;;;1.09;85.23
49451;BME280;35336;48.400;10.886;2023-01-31T01:04:56;96979.97;;;1.08;85.13
49451;BME280;35336;48.400;10.886;2023-01-31T01:05:12;96955.41;;;0.98;85.05
49451;BME280;35336;48.400;10.886;2023-01-31T01:05:27;96979.03;;;1.09;85.26
49451;BME280;35336;48.400;10.886;2023-01-31T01:05:43;96964.34;;;1.06;85.45
49451;BME280;35336;48.400;10.886;2023-01-31T01:05:58;96981.88;;;1.17;85.35
49451;BME280;35336;48.400;10.886;2023-01-31T01:06:13;96967.69;;;1.08;84.90
49451;BME280;35336;48.400;10.886;2023-01-31T01:06:29;96985.47;;;1.16;85.27
49451;BME280;35336;48.400;10.886;2023-01-31T01:06:44;96987.25;;;1.16;84.98
49451;BME280;35336;48.400;10.886;2023-01-31T01:07:00;96985.72;;;1.13;85.01
49451;BME280;35336;48.400;10.886;2023-01-31T01:07:15;96986.78;;;1.10;85.11
49451;BME280;35336;48.400;10.886;2023-01-31T01:07:30;96962.06;;;1.02;85.18
49451;BME280;35336;48.400;10.886;2023-01-31T01:07:46;96968.19;;;1.02;85.44
49451;BME280;35336;48.400;10.886;2023-01-31T01:08:01;96985.94;;;1.10;85.22
49451;BME280;35336;48.400;10.886;2023-01-31T01:08:17;96989.53;;;1.09;85.21
49451;BME280;35336;48.400;10.886;2023-01-31T01:08:32;96974.03;;;1.06;85.52
49451;BME280;35336;48.400;10.886;2023-01-31T01:08:48;96966.59;;;1.00;85.13
49451;BME280;35336;48.400;10.886;2023-01-31T01:09:03;96985.22;;;1.08;85.67
49451;BME280;35336;48.400;10.886;2023-01-31T01:09:18;96984.28;;;1.09;85.43
49451;BME280;35336;48.400;10.886;2023-01-31T01:09:34;96963.97;;;1.00;85.63
49451;BME280;35336;48.400;10.886;2023-01-31T01:09:49;96986.91;;;1.09;85.28
49451;BME280;35336;48.400;10.886;2023-01-31T01:10:05;96977.34;;;1.08;85.50
49451;BME280;35336;48.400;10.886;2023-01-31T01:10:21;96944.09;;;0.86;85.58
49451;BME280;35336;48.400;10.886;2023-01-31T01:10:36;96983.56;;;1.07;85.37
49451;BME280;35336;48.400;10.886;2023-01-31T01:10:52;96951.69;;;0.89;85.37
49451;BME280;35336;48.400;10.886;2023-01-31T01:11:09;96966.88;;;0.97;85.45
49451;BME280;35336;48.400;10.886;2023-01-31T01:11:28;96969.38;;;0.98;85.47
49451;BME280;35336;48.400;10.886;2023-01-31T01:11:43;96978.44;;;1.05;85.54
49451;BME280;35336;48.400;10.886;2023-01-31T01:11:58;96977.59;;;1.05;85.72
49451;BME280;35336;48.400;10.886;2023-01-31T01:12:14;96986.31;;;1.05;85.75
49451;BME280;35336;48.400;10.886;2023-01-31T01:12:29;96954.47;;;0.87;85.87
49451;BME280;35336;48.400;10.886;2023-01-31T01:12:44;96982.88;;;1.05;85.84
49451;BME280;35336;48.400;10.886;2023-01-31T01:13:00;96964.84;;;1.00;85.88
49451;BME280;35336;48.400;10.886;2023-01-31T01:13:16;96977.72;;;1.03;85.79
49451;BME280;35336;48.400;10.886;2023-01-31T01:13:31;96962.69;;;0.94;86.05
49451;BME280;35336;48.400;10.886;2023-01-31T01:13:46;96992.50;;;1.04;85.88
49451;BME280;35336;48.400;10.886;2023-01-31T01:14:02;96945.16;;;0.83;85.61
49451;BME280;35336;48.400;10.886;2023-01-31T01:14:17;96984.53;;;1.06;85.71
49451;BME280;35336;48.400;10.886;2023-01-31T01:14:33;96980.22;;;1.05;85.47
49451;BME280;35336;48.400;10.886;2023-01-31T01:14:48;96971.16;;;0.98;85.63
49451;BME280;35336;48.400;10.886;2023-01-31T01:15:04;96981.06;;;1.05;85.56
49451;BME280;35336;48.400;10.886;2023-01-31T01:15:20;96979.03;;;0.98;85.47
49451;BME280;35336;48.400;10.886;2023-01-31T01:15:37;96970.44;;;0.95;85.54
49451;BME280;35336;48.400;10.886;2023-01-31T01:15:52;96980.81;;;0.97;85.69
49451;BME280;35336;48.400;10.886;2023-01-31T01:16:16;96980.72;;;0.99;85.65
49451;BME280;35336;48.400;10.886;2023-01-31T01:16:35;96945.03;;;0.85;85.71
49451;BME280;35336;48.400;10.886;2023-01-31T01:16:51;96965.19;;;0.95;85.24
49451;BME280;35336;48.400;10.886;2023-01-31T01:17:06;96981.91;;;1.06;85.28
49451;BME280;35336;48.400;10.886;2023-01-31T01:17:21;96972.84;;;0.99;85.55
49451;BME280;35336;48.400;10.886;2023-01-31T01:17:37;96957.44;;;0.94;85.32
49451;BME280;35336;48.400;10.886;2023-01-31T01:17:54;96984.53;;;1.06;85.46
49451;BME280;35336;48.400;10.886;2023-01-31T01:18:09;96976.88;;;1.03;85.76
49451;BME280;35336;48.400;10.886;2023-01-31T01:18:24;96987.25;;;1.04;85.77
49451;BME280;35336;48.400;10.886;2023-01-31T01:18:40;96970.44;;;0.95;85.62
49451;BME280;35336;48.400;10.886;2023-01-31T01:18:55;96949.69;;;0.81;85.38
49451;BME280;35336;48.400;10.886;2023-01-31T01:19:14;96986.44;;;1.04;85.27
49451;BME280;35336;48.400;10.886;2023-01-31T01:19:30;96958.88;;;0.87;85.72
49451;BME280;35336;48.400;10.886;2023-01-31T01:19:45;96991.69;;;1.04;85.38
49451;BME280;35336;48.400;10.886;2023-01-31T01:20:00;96991.91;;;1.01;85.41
49451;BME280;35336;48.400;10.886;2023-01-31T01:20:16;96978.19;;;0.97;85.70
49451;BME280;35336;48.400;10.886;2023-01-31T01:20:33;96992.41;;;1.06;85.55
49451;BME280;35336;48.400;10.886;2023-01-31T01:20:48;96945.25;;;0.82;85.37
49451;BME280;35336;48.400;10.886;2023-01-31T01:21:12;96980.47;;;1.02;85.56
49451;BME280;35336;48.400;10.886;2023-01-31T01:21:29;96975.47;;;0.99;85.71
49451;BME280;35336;48.400;10.886;2023-01-31T01:21:45;96985.72;;;1.02;85.57
49451;BME280;35336;48.400;10.886;2023-01-31T01:22:00;96984.75;;;1.03;85.58
49451;BME280;35336;48.400;10.886;2023-01-31T01:22:15;96980.34;;;1.03;85.54
49451;BME280;35336;48.400;10.886;2023-01-31T01:22:32;96950.50;;;0.82;85.72
49451;BME280;35336;48.400;10.886;2023-01-31T01:22:47;96948.16;;;0.78;85.66
49451;BME280;35336;48.400;10.886;2023-01-31T01:23:03;96981.41;;;1.01;85.36
49451;BME280;35336;48.400;10.886;2023-01-31T01:23:18;96980.59;;;1.00;85.33
49451;BME280;35336;48.400;10.886;2023-01-31T01:23:34;96990.25;;;1.00;85.69
49451;BME280;35336;48.400;10.886;2023-01-31T01:23:50;96974.38;;;0.90;85.75
49451;BME280;35336;48.400;10.886;2023-01-31T01:24:10;96992.19;;;0.98;85.97
49451;BME280;35336;48.400;10.886;2023-01-31T01:24:26;96970.22;;;0.87;85.95
49451;BME280;35336;48.400;10.886;2023-01-31T01:24:42;96990.50;;;0.97;86.10